sensor_id;sensor_type;location;lat;lon;timestamp;P1;durP1;ratioP1;P2;durP2;ratioP2
26512;SDS011;14186;53.822;10.152;2024-03-29T00:03:09;6.35;;;1.85;;
26512;SDS011;14186;53.822;10.152;2024-03-29T00:08:10;4.22;;;1.67;;
26512;SDS011;14186;53.822;10.152;2024-03-29T00:13:11;4.80;;;1.67;;
26512;SDS011;14186;53.822;10.152;2024-03-29T00:18:12;6.57;;;1.60;;
26512;SDS011;14186;53.822;10.152;2024-03-29T00:23:12;1.63;;;0.93;;
26512;SDS011;14186;53.822;10.152;2024-03-29T00:28:15;2.70;;;1.20;;
26512;SDS011;14186;53.822;10.152;2024-03-29T00:33:15;2.38;;;0.90;;
26512;SDS011;14186;53.822;10.152;2024-03-29T00:38:16;3.47;;;1.02;;
26512;SDS011;14186;53.822;10.152;2024-03-29T00:43:17;3.00;;;1.27;;
26512;SDS011;14186;53.822;10.152;2024-03-29T00:48:17;3.28;;;1.30;;
26512;SDS011;14186;53.822;10.152;2024-03-29T00:53:18;3.65;;;1.52;;
26512;SDS011;14186;53.822;10.152;2024-03-29T00:58:19;2.58;;;0.93;;
26512;SDS011;14186;53.822;10.152;2024-03-29T01:03:19;3.92;;;1.08;;
26512;SDS011;14186;53.822;10.152;2024-03-29T01:08:20;2.85;;;0.98;;
26512;SDS011;14186;53.822;10.152;2024-03-29T01:13:22;4.07;;;1.05;;
26512;SDS011;14186;53.822;10.152;2024-03-29T01:18:22;2.30;;;1.00;;
26512;SDS011;14186;53.822;10.152;2024-03-29T01:23:22;7.25;;;1.23;;
26512;SDS011;14186;53.822;10.152;2024-03-29T01:28:24;4.40;;;1.02;;
26512;SDS011;14186;53.822;10.152;2024-03-29T01:33:24;3.13;;;1.00;;
26512;SDS011;14186;53.822;10.152;2024-03-29T01:38:24;1.80;;;0.83;;
26512;SDS011;14186;53.822;10.152;2024-03-29T01:43:26;2.35;;;0.65;;
26512;SDS011;14186;53.822;10.152;2024-03-29T01:48:26;1.05;;;0.70;;
26512;SDS011;14186;53.822;10.152;2024-03-29T01:53:27;9.55;;;0.95;;
26512;SDS011;14186;53.822;10.152;2024-03-29T01:58:29;5.03;;;1.58;;
26512;SDS011;14186;53.822;10.152;2024-03-29T02:03:30;1.73;;;0.68;;
26512;SDS011;14186;53.822;10.152;2024-03-29T02:08:30;3.13;;;0.77;;
26512;SDS011;14186;53.822;10.152;2024-03-29T02:13:32;1.10;;;0.75;;
26512;SDS011;14186;53.822;10.152;2024-03-29T02:18:32;0.90;;;0.50;;
26512;SDS011;14186;53.822;10.152;2024-03-29T02:23:32;2.40;;;0.90;;
26512;SDS011;14186;53.822;10.152;2024-03-29T02:28:36;4.18;;;1.13;;
26512;SDS011;14186;53.822;10.152;2024-03-29T02:33:36;2.20;;;0.70;;
26512;SDS011;14186;53.822;10.152;2024-03-29T02:38:36;1.70;;;0.47;;
26512;SDS011;14186;53.822;10.152;2024-03-29T02:43:38;2.85;;;0.80;;
26512;SDS011;14186;53.822;10.152;2024-03-29T02:48:38;2.72;;;1.00;;
26512;SDS011;14186;53.822;10.152;2024-03-29T02:53:38;4.30;;;0.60;;
26512;SDS011;14186;53.822;10.152;2024-03-29T02:58:40;0.80;;;0.50;;
26512;SDS011;14186;53.822;10.152;2024-03-29T03:03:40;5.43;;;0.70;;
26512;SDS011;14186;53.822;10.152;2024-03-29T03:08:40;1.63;;;0.65;;
26512;SDS011;14186;53.822;10.152;2024-03-29T03:13:42;4.53;;;0.88;;
26512;SDS011;14186;53.822;10.152;2024-03-29T03:18:42;3.75;;;0.60;;
26512;SDS011;14186;53.822;10.152;2024-03-29T03:23:42;2.35;;;0.65;;
26512;SDS011;14186;53.822;10.152;2024-03-29T03:28:44;2.17;;;0.40;;
26512;SDS011;14186;53.822;10.152;2024-03-29T03:33:44;2.50;;;0.57;;
26512;SDS011;14186;53.822;10.152;2024-03-29T03:38:44;3.90;;;0.60;;
26512;SDS011;14186;53.822;10.152;2024-03-29T03:43:46;2.03;;;0.50;;
26512;SDS011;14186;53.822;10.152;2024-03-29T03:48:46;1.75;;;0.50;;
26512;SDS011;14186;53.822;10.152;2024-03-29T03:53:47;0.83;;;0.40;;
26512;SDS011;14186;53.822;10.152;2024-03-29T03:58:48;5.93;;;0.70;;
26512;SDS011;14186;53.822;10.152;2024-03-29T04:03:48;2.65;;;0.75;;
26512;SDS011;14186;53.822;10.152;2024-03-29T04:08:49;1.77;;;0.50;;
26512;SDS011;14186;53.822;10.152;2024-03-29T04:13:50;2.28;;;0.40;;
26512;SDS011;14186;53.822;10.152;2024-03-29T04:18:51;2.20;;;0.50;;
26512;SDS011;14186;53.822;10.152;2024-03-29T04:23:51;4.05;;;0.80;;
26512;SDS011;14186;53.822;10.152;2024-03-29T04:28:52;1.15;;;0.38;;
26512;SDS011;14186;53.822;10.152;2024-03-29T04:33:53;2.83;;;0.80;;
26512;SDS011;14186;53.822;10.152;2024-03-29T04:38:53;2.00;;;0.47;;
26512;SDS011;14186;53.822;10.152;2024-03-29T04:43:55;0.80;;;0.30;;
26512;SDS011;14186;53.822;10.152;2024-03-29T04:48:55;1.40;;;0.60;;
26512;SDS011;14186;53.822;10.152;2024-03-29T04:53:55;1.55;;;0.30;;
26512;SDS011;14186;53.822;10.152;2024-03-29T04:58:57;1.60;;;0.45;;
26512;SDS011;14186;53.822;10.152;2024-03-29T05:03:57;0.95;;;0.30;;
26512;SDS011;14186;53.822;10.152;2024-03-29T05:08:57;1.15;;;0.38;;
26512;SDS011;14186;53.822;10.152;2024-03-29T05:13:59;5.47;;;0.80;;
26512;SDS011;14186;53.822;10.152;2024-03-29T05:18:59;3.67;;;0.40;;
26512;SDS011;14186;53.822;10.152;2024-03-29T05:23:59;6.97;;;0.65;;
26512;SDS011;14186;53.822;10.152;2024-03-29T05:29:01;2.42;;;0.40;;
26512;SDS011;14186;53.822;10.152;2024-03-29T05:34:01;2.03;;;0.57;;
26512;SDS011;14186;53.822;10.152;2024-03-29T05:39:01;1.73;;;0.50;;
26512;SDS011;14186;53.822;10.152;2024-03-29T05:44:04;0.88;;;0.70;;
26512;SDS011;14186;53.822;10.152;2024-03-29T05:49:05;3.45;;;0.55;;
26512;SDS011;14186;53.822;10.152;2024-03-29T05:54:05;1.27;;;0.60;;
26512;SDS011;14186;53.822;10.152;2024-03-29T05:59:06;2.88;;;0.52;;
26512;SDS011;14186;53.822;10.152;2024-03-29T06:04:07;0.45;;;0.38;;
26512;SDS011;14186;53.822;10.152;2024-03-29T06:09:07;2.47;;;0.63;;
26512;SDS011;14186;53.822;10.152;2024-03-29T06:14:09;0.50;;;0.30;;
26512;SDS011;14186;53.822;10.152;2024-03-29T06:19:09;1.88;;;0.40;;
26512;SDS011;14186;53.822;10.152;2024-03-29T06:24:10;2.40;;;0.50;;
26512;SDS011;14186;53.822;10.152;2024-03-29T06:29:12;2.63;;;0.47;;
26512;SDS011;14186;53.822;10.152;2024-03-29T06:34:12;2.03;;;0.50;;
26512;SDS011;14186;53.822;10.152;2024-03-29T06:39:12;1.50;;;0.37;;
26512;SDS011;14186;53.822;10.152;2024-03-29T06:44:14;2.45;;;0.40;;
26512;SDS011;14186;53.822;10.152;2024-03-29T06:49:14;2.03;;;0.40;;
26512;SDS011;14186;53.822;10.152;2024-03-29T06:54:14;4.00;;;0.50;;
26512;SDS011;14186;53.822;10.152;2024-03-29T06:59:16;3.88;;;0.50;;
26512;SDS011;14186;53.822;10.152;2024-03-29T07:04:16;2.97;;;0.40;;
26512;SDS011;14186;53.822;10.152;2024-03-29T07:09:17;2.50;;;0.45;;
26512;SDS011;14186;53.822;10.152;2024-03-29T07:14:18;1.42;;;0.55;;
26512;SDS011;14186;53.822;10.152;2024-03-29T07:19:19;1.80;;;0.60;;
26512;SDS011;14186;53.822;10.152;2024-03-29T07:24:19;3.53;;;0.40;;
26512;SDS011;14186;53.822;10.152;2024-03-29T07:29:21;2.73;;;0.47;;
26512;SDS011;14186;53.822;10.152;2024-03-29T07:34:21;1.30;;;0.60;;
26512;SDS011;14186;53.822;10.152;2024-03-29T07:39:21;1.88;;;0.77;;
26512;SDS011;14186;53.822;10.152;2024-03-29T07:44:23;3.25;;;0.50;;
26512;SDS011;14186;53.822;10.152;2024-03-29T07:49:23;4.10;;;0.50;;
26512;SDS011;14186;53.822;10.152;2024-03-29T07:54:23;1.70;;;0.82;;
26512;SDS011;14186;53.822;10.152;2024-03-29T07:59:25;3.90;;;0.55;;
26512;SDS011;14186;53.822;10.152;2024-03-29T08:04:25;1.48;;;0.50;;
26512;SDS011;14186;53.822;10.152;2024-03-29T08:09:25;4.25;;;0.60;;
26512;SDS011;14186;53.822;10.152;2024-03-29T08:14:27;1.88;;;0.43;;
26512;SDS011;14186;53.822;10.152;2024-03-29T08:19:27;2.78;;;0.70;;
26512;SDS011;14186;53.822;10.152;2024-03-29T08:24:27;0.75;;;0.30;;
26512;SDS011;14186;53.822;10.152;2024-03-29T08:29:29;3.30;;;0.90;;
26512;SDS011;14186;53.822;10.152;2024-03-29T08:34:29;0.82;;;0.40;;
26512;SDS011;14186;53.822;10.152;2024-03-29T08:39:29;2.67;;;0.40;;
26512;SDS011;14186;53.822;10.152;2024-03-29T08:44:31;1.48;;;0.50;;
26512;SDS011;14186;53.822;10.152;2024-03-29T08:49:31;2.13;;;0.40;;
26512;SDS011;14186;53.822;10.152;2024-03-29T08:54:32;3.55;;;0.70;;
26512;SDS011;14186;53.822;10.152;2024-03-29T08:59:33;1.75;;;0.40;;
26512;SDS011;14186;53.822;10.152;2024-03-29T09:04:34;1.73;;;0.30;;
26512;SDS011;14186;53.822;10.152;2024-03-29T09:09:34;1.65;;;0.50;;
26512;SDS011;14186;53.822;10.152;2024-03-29T09:14:35;1.93;;;0.63;;
26512;SDS011;14186;53.822;10.152;2024-03-29T09:19:36;3.17;;;0.50;;
26512;SDS011;14186;53.822;10.152;2024-03-29T09:24:36;5.88;;;0.50;;
26512;SDS011;14186;53.822;10.152;2024-03-29T09:29:38;0.38;;;0.20;;
26512;SDS011;14186;53.822;10.152;2024-03-29T09:34:38;1.85;;;0.22;;
26512;SDS011;14186;53.822;10.152;2024-03-29T09:39:38;0.63;;;0.30;;
26512;SDS011;14186;53.822;10.152;2024-03-29T09:44:40;1.20;;;0.30;;
26512;SDS011;14186;53.822;10.152;2024-03-29T09:49:41;3.65;;;0.30;;
26512;SDS011;14186;53.822;10.152;2024-03-29T09:54:41;1.63;;;0.52;;
26512;SDS011;14186;53.822;10.152;2024-03-29T09:59:43;2.95;;;0.50;;
26512;SDS011;14186;53.822;10.152;2024-03-29T10:04:44;2.10;;;0.20;;
26512;SDS011;14186;53.822;10.152;2024-03-29T10:09:45;0.25;;;0.20;;
26512;SDS011;14186;53.822;10.152;2024-03-29T10:14:47;1.90;;;0.60;;
26512;SDS011;14186;53.822;10.152;2024-03-29T10:19:47;0.85;;;0.32;;
26512;SDS011;14186;53.822;10.152;2024-03-29T10:24:48;2.33;;;0.43;;
26512;SDS011;14186;53.822;10.152;2024-03-29T10:29:49;0.88;;;0.30;;
26512;SDS011;14186;53.822;10.152;2024-03-29T10:34:51;0.88;;;0.30;;
26512;SDS011;14186;53.822;10.152;2024-03-29T10:39:51;1.38;;;0.20;;
26512;SDS011;14186;53.822;10.152;2024-03-29T10:44:53;1.48;;;0.45;;
26512;SDS011;14186;53.822;10.152;2024-03-29T10:49:55;1.38;;;0.38;;
26512;SDS011;14186;53.822;10.152;2024-03-29T10:54:56;1.90;;;0.40;;
26512;SDS011;14186;53.822;10.152;2024-03-29T11:00:01;2.33;;;0.43;;
26512;SDS011;14186;53.822;10.152;2024-03-29T11:05:02;2.30;;;0.40;;
26512;SDS011;14186;53.822;10.152;2024-03-29T11:10:06;0.70;;;0.40;;
26512;SDS011;14186;53.822;10.152;2024-03-29T11:15:09;3.33;;;0.70;;
26512;SDS011;14186;53.822;10.152;2024-03-29T11:20:13;1.63;;;0.70;;
26512;SDS011;14186;53.822;10.152;2024-03-29T11:25:14;1.23;;;0.52;;
26512;SDS011;14186;53.822;10.152;2024-03-29T11:30:17;2.58;;;0.40;;
26512;SDS011;14186;53.822;10.152;2024-03-29T11:35:17;1.42;;;0.50;;
26512;SDS011;14186;53.822;10.152;2024-03-29T11:40:18;2.55;;;0.50;;
26512;SDS011;14186;53.822;10.152;2024-03-29T11:45:20;0.43;;;0.20;;
26512;SDS011;14186;53.822;10.152;2024-03-29T11:50:21;3.20;;;0.40;;
26512;SDS011;14186;53.822;10.152;2024-03-29T11:55:22;4.68;;;0.63;;
26512;SDS011;14186;53.822;10.152;2024-03-29T12:00:23;0.65;;;0.30;;
26512;SDS011;14186;53.822;10.152;2024-03-29T12:05:24;2.92;;;0.40;;
26512;SDS011;14186;53.822;10.152;2024-03-29T12:10:26;1.83;;;0.60;;
26512;SDS011;14186;53.822;10.152;2024-03-29T12:15:28;2.05;;;0.77;;
26512;SDS011;14186;53.822;10.152;2024-03-29T12:20:29;2.15;;;0.55;;
26512;SDS011;14186;53.822;10.152;2024-03-29T12:25:29;1.92;;;0.40;;
26512;SDS011;14186;53.822;10.152;2024-03-29T12:30:31;3.53;;;0.68;;
26512;SDS011;14186;53.822;10.152;2024-03-29T12:35:32;3.70;;;0.70;;
26512;SDS011;14186;53.822;10.152;2024-03-29T12:40:32;2.83;;;0.68;;
26512;SDS011;14186;53.822;10.152;2024-03-29T12:45:34;2.47;;;0.57;;
26512;SDS011;14186;53.822;10.152;2024-03-29T12:50:34;3.08;;;0.70;;
26512;SDS011;14186;53.822;10.152;2024-03-29T12:55:35;1.42;;;0.75;;
26512;SDS011;14186;53.822;10.152;2024-03-29T13:00:37;3.92;;;0.90;;
26512;SDS011;14186;53.822;10.152;2024-03-29T13:05:37;3.38;;;0.75;;
26512;SDS011;14186;53.822;10.152;2024-03-29T13:10:38;1.65;;;0.77;;
26512;SDS011;14186;53.822;10.152;2024-03-29T13:15:39;0.80;;;0.40;;
26512;SDS011;14186;53.822;10.152;2024-03-29T13:20:40;1.63;;;0.55;;
26512;SDS011;14186;53.822;10.152;2024-03-29T13:25:40;1.33;;;0.80;;
26512;SDS011;14186;53.822;10.152;2024-03-29T13:30:42;2.63;;;0.70;;
26512;SDS011;14186;53.822;10.152;2024-03-29T13:35:42;1.35;;;0.45;;
26512;SDS011;14186;53.822;10.152;2024-03-29T13:40:42;1.27;;;0.43;;
26512;SDS011;14186;53.822;10.152;2024-03-29T13:45:44;2.20;;;0.50;;
26512;SDS011;14186;53.822;10.152;2024-03-29T13:50:44;1.70;;;0.50;;
26512;SDS011;14186;53.822;10.152;2024-03-29T13:55:45;1.58;;;0.40;;
26512;SDS011;14186;53.822;10.152;2024-03-29T14:00:46;1.33;;;0.98;;
26512;SDS011;14186;53.822;10.152;2024-03-29T14:05:47;3.25;;;0.57;;
26512;SDS011;14186;53.822;10.152;2024-03-29T14:10:47;2.27;;;0.60;;
26512;SDS011;14186;53.822;10.152;2024-03-29T14:15:48;2.17;;;0.60;;
26512;SDS011;14186;53.822;10.152;2024-03-29T14:20:49;1.75;;;0.60;;
26512;SDS011;14186;53.822;10.152;2024-03-29T14:25:49;2.15;;;0.57;;
26512;SDS011;14186;53.822;10.152;2024-03-29T14:30:51;0.70;;;0.32;;
26512;SDS011;14186;53.822;10.152;2024-03-29T14:35:51;1.35;;;0.55;;
26512;SDS011;14186;53.822;10.152;2024-03-29T14:40:51;2.13;;;0.60;;
26512;SDS011;14186;53.822;10.152;2024-03-29T14:45:53;1.15;;;0.50;;
26512;SDS011;14186;53.822;10.152;2024-03-29T14:50:53;1.88;;;0.60;;
26512;SDS011;14186;53.822;10.152;2024-03-29T14:55:53;0.88;;;0.50;;
26512;SDS011;14186;53.822;10.152;2024-03-29T15:00:55;1.10;;;0.68;;
26512;SDS011;14186;53.822;10.152;2024-03-29T15:05:55;1.48;;;0.60;;
26512;SDS011;14186;53.822;10.152;2024-03-29T15:10:56;1.83;;;0.75;;
26512;SDS011;14186;53.822;10.152;2024-03-29T15:15:59;3.20;;;0.73;;
26512;SDS011;14186;53.822;10.152;2024-03-29T15:21:00;3.50;;;0.68;;
26512;SDS011;14186;53.822;10.152;2024-03-29T15:26:00;1.45;;;0.60;;
26512;SDS011;14186;53.822;10.152;2024-03-29T15:31:08;1.83;;;0.75;;
26512;SDS011;14186;53.822;10.152;2024-03-29T15:36:08;2.10;;;0.50;;
26512;SDS011;14186;53.822;10.152;2024-03-29T15:41:09;1.67;;;0.77;;
26512;SDS011;14186;53.822;10.152;2024-03-29T15:46:10;1.15;;;0.60;;
26512;SDS011;14186;53.822;10.152;2024-03-29T15:51:11;2.35;;;0.68;;
26512;SDS011;14186;53.822;10.152;2024-03-29T15:56:11;2.40;;;0.80;;
26512;SDS011;14186;53.822;10.152;2024-03-29T16:01:13;1.73;;;0.70;;
26512;SDS011;14186;53.822;10.152;2024-03-29T16:06:13;1.58;;;0.75;;
26512;SDS011;14186;53.822;10.152;2024-03-29T16:11:13;2.75;;;0.88;;
26512;SDS011;14186;53.822;10.152;2024-03-29T16:16:15;7.57;;;3.50;;
26512;SDS011;14186;53.822;10.152;2024-03-29T16:21:15;4.03;;;2.22;;
26512;SDS011;14186;53.822;10.152;2024-03-29T16:26:15;5.68;;;1.73;;
26512;SDS011;14186;53.822;10.152;2024-03-29T16:31:17;2.38;;;1.40;;
26512;SDS011;14186;53.822;10.152;2024-03-29T16:36:17;5.05;;;2.65;;
26512;SDS011;14186;53.822;10.152;2024-03-29T16:41:17;3.75;;;1.20;;
26512;SDS011;14186;53.822;10.152;2024-03-29T16:46:19;1.67;;;0.98;;
26512;SDS011;14186;53.822;10.152;2024-03-29T16:51:20;4.18;;;1.33;;
26512;SDS011;14186;53.822;10.152;2024-03-29T16:56:20;6.63;;;4.28;;
26512;SDS011;14186;53.822;10.152;2024-03-29T17:01:22;7.32;;;3.85;;
26512;SDS011;14186;53.822;10.152;2024-03-29T17:06:22;3.13;;;2.15;;
26512;SDS011;14186;53.822;10.152;2024-03-29T17:11:23;8.18;;;3.72;;
26512;SDS011;14186;53.822;10.152;2024-03-29T17:16:24;10.02;;;5.25;;
26512;SDS011;14186;53.822;10.152;2024-03-29T17:21:24;5.10;;;2.88;;
26512;SDS011;14186;53.822;10.152;2024-03-29T17:26:25;5.35;;;2.83;;
26512;SDS011;14186;53.822;10.152;2024-03-29T17:31:26;3.63;;;2.83;;
26512;SDS011;14186;53.822;10.152;2024-03-29T17:36:26;2.75;;;1.70;;
26512;SDS011;14186;53.822;10.152;2024-03-29T17:41:27;3.17;;;1.60;;
26512;SDS011;14186;53.822;10.152;2024-03-29T17:46:28;4.22;;;1.42;;
26512;SDS011;14186;53.822;10.152;2024-03-29T17:51:29;2.95;;;2.00;;
26512;SDS011;14186;53.822;10.152;2024-03-29T17:56:29;3.92;;;2.03;;
26512;SDS011;14186;53.822;10.152;2024-03-29T18:01:30;4.80;;;2.40;;
26512;SDS011;14186;53.822;10.152;2024-03-29T18:06:31;4.60;;;2.10;;
26512;SDS011;14186;53.822;10.152;2024-03-29T18:11:31;4.25;;;2.30;;
26512;SDS011;14186;53.822;10.152;2024-03-29T18:16:33;7.60;;;3.50;;
26512;SDS011;14186;53.822;10.152;2024-03-29T18:21:33;4.90;;;2.92;;
26512;SDS011;14186;53.822;10.152;2024-03-29T18:26:33;6.70;;;3.10;;
26512;SDS011;14186;53.822;10.152;2024-03-29T18:31:35;4.80;;;2.90;;
26512;SDS011;14186;53.822;10.152;2024-03-29T18:36:36;6.00;;;3.13;;
26512;SDS011;14186;53.822;10.152;2024-03-29T18:41:36;4.30;;;2.38;;
26512;SDS011;14186;53.822;10.152;2024-03-29T18:46:37;6.00;;;2.40;;
26512;SDS011;14186;53.822;10.152;2024-03-29T18:51:38;4.68;;;3.00;;
26512;SDS011;14186;53.822;10.152;2024-03-29T18:56:38;5.57;;;3.13;;
26512;SDS011;14186;53.822;10.152;2024-03-29T19:01:40;8.23;;;4.45;;
26512;SDS011;14186;53.822;10.152;2024-03-29T19:06:40;8.50;;;3.85;;
26512;SDS011;14186;53.822;10.152;2024-03-29T19:11:40;5.50;;;3.30;;
26512;SDS011;14186;53.822;10.152;2024-03-29T19:16:42;5.45;;;3.47;;
26512;SDS011;14186;53.822;10.152;2024-03-29T19:21:42;7.45;;;4.70;;
26512;SDS011;14186;53.822;10.152;2024-03-29T19:26:42;9.75;;;3.88;;
26512;SDS011;14186;53.822;10.152;2024-03-29T19:31:44;7.15;;;4.30;;
26512;SDS011;14186;53.822;10.152;2024-03-29T19:36:44;6.65;;;3.60;;
26512;SDS011;14186;53.822;10.152;2024-03-29T19:41:45;5.45;;;3.47;;
26512;SDS011;14186;53.822;10.152;2024-03-29T19:46:46;5.43;;;3.22;;
26512;SDS011;14186;53.822;10.152;2024-03-29T19:51:48;7.28;;;4.88;;
26512;SDS011;14186;53.822;10.152;2024-03-29T19:56:48;7.72;;;4.88;;
26512;SDS011;14186;53.822;10.152;2024-03-29T20:01:50;9.02;;;4.07;;
26512;SDS011;14186;53.822;10.152;2024-03-29T20:06:50;26.98;;;13.95;;
26512;SDS011;14186;53.822;10.152;2024-03-29T20:11:50;19.08;;;10.10;;
26512;SDS011;14186;53.822;10.152;2024-03-29T20:16:52;9.93;;;5.73;;
26512;SDS011;14186;53.822;10.152;2024-03-29T20:21:53;9.10;;;4.93;;
26512;SDS011;14186;53.822;10.152;2024-03-29T20:26:53;8.63;;;4.13;;
26512;SDS011;14186;53.822;10.152;2024-03-29T20:31:55;6.90;;;3.77;;
26512;SDS011;14186;53.822;10.152;2024-03-29T20:36:55;14.20;;;7.70;;
26512;SDS011;14186;53.822;10.152;2024-03-29T20:41:55;21.17;;;11.77;;
26512;SDS011;14186;53.822;10.152;2024-03-29T20:46:57;18.73;;;9.60;;
26512;SDS011;14186;53.822;10.152;2024-03-29T20:51:57;27.40;;;13.80;;
26512;SDS011;14186;53.822;10.152;2024-03-29T20:56:57;16.10;;;9.00;;
26512;SDS011;14186;53.822;10.152;2024-03-29T21:01:59;15.82;;;8.75;;
26512;SDS011;14186;53.822;10.152;2024-03-29T21:06:59;15.15;;;7.03;;
26512;SDS011;14186;53.822;10.152;2024-03-29T21:12:00;17.85;;;8.55;;
26512;SDS011;14186;53.822;10.152;2024-03-29T21:17:01;11.02;;;6.53;;
26512;SDS011;14186;53.822;10.152;2024-03-29T21:22:01;17.30;;;8.38;;
26512;SDS011;14186;53.822;10.152;2024-03-29T21:27:02;11.70;;;6.57;;
26512;SDS011;14186;53.822;10.152;2024-03-29T21:32:04;11.50;;;6.05;;
26512;SDS011;14186;53.822;10.152;2024-03-29T21:37:04;10.90;;;5.75;;
26512;SDS011;14186;53.822;10.152;2024-03-29T21:42:04;11.88;;;6.60;;
26512;SDS011;14186;53.822;10.152;2024-03-29T21:47:06;10.18;;;5.28;;
26512;SDS011;14186;53.822;10.152;2024-03-29T21:52:07;9.52;;;5.40;;
26512;SDS011;14186;53.822;10.152;2024-03-29T21:57:07;9.20;;;5.10;;
26512;SDS011;14186;53.822;10.152;2024-03-29T22:02:09;8.77;;;5.35;;
26512;SDS011;14186;53.822;10.152;2024-03-29T22:07:09;7.55;;;4.70;;
26512;SDS011;14186;53.822;10.152;2024-03-29T22:12:09;8.50;;;4.63;;
26512;SDS011;14186;53.822;10.152;2024-03-29T22:17:11;10.50;;;4.88;;
26512;SDS011;14186;53.822;10.152;2024-03-29T22:22:11;6.95;;;4.60;;
26512;SDS011;14186;53.822;10.152;2024-03-29T22:27:12;7.22;;;4.47;;
26512;SDS011;14186;53.822;10.152;2024-03-29T22:32:13;7.85;;;4.55;;
26512;SDS011;14186;53.822;10.152;2024-03-29T22:37:13;9.05;;;4.32;;
26512;SDS011;14186;53.822;10.152;2024-03-29T22:42:14;9.18;;;4.90;;
26512;SDS011;14186;53.822;10.152;2024-03-29T22:47:15;6.97;;;4.88;;
26512;SDS011;14186;53.822;10.152;2024-03-29T22:52:16;6.65;;;4.22;;
26512;SDS011;14186;53.822;10.152;2024-03-29T22:57:16;8.25;;;4.32;;
26512;SDS011;14186;53.822;10.152;2024-03-29T23:02:17;6.45;;;3.78;;
26512;SDS011;14186;53.822;10.152;2024-03-29T23:07:18;6.25;;;4.20;;
26512;SDS011;14186;53.822;10.152;2024-03-29T23:12:18;6.38;;;3.78;;
26512;SDS011;14186;53.822;10.152;2024-03-29T23:17:19;6.70;;;4.05;;
26512;SDS011;14186;53.822;10.152;2024-03-29T23:22:20;7.75;;;3.80;;
26512;SDS011;14186;53.822;10.152;2024-03-29T23:27:20;8.65;;;3.70;;
26512;SDS011;14186;53.822;10.152;2024-03-29T23:32:22;6.03;;;3.38;;
26512;SDS011;14186;53.822;10.152;2024-03-29T23:37:22;6.45;;;3.08;;
26512;SDS011;14186;53.822;10.152;2024-03-29T23:42:22;6.93;;;3.70;;
26512;SDS011;14186;53.822;10.152;2024-03-29T23:47:24;7.28;;;3.40;;
26512;SDS011;14186;53.822;10.152;2024-03-29T23:52:24;6.00;;;2.90;;
26512;SDS011;14186;53.822;10.152;2024-03-29T23:57:24;6.40;;;3.30;;
